sensor_id;sensor_type;location;lat;lon;timestamp;pressure;altitude;pressure_sealevel;temperature;humidity
51829;BME280;37881;48.024;8.774;2023-08-20T00:00:36;94360.50;;;19.99;100.00
51829;BME280;37881;48.024;8.774;2023-08-20T00:03:10;94358.16;;;19.97;100.00
51829;BME280;37881;48.024;8.774;2023-08-20T00:05:38;94364.66;;;19.94;100.00
51829;BME280;37881;48.024;8.774;2023-08-20T00:08:05;94353.50;;;19.94;100.00
51829;BME280;37881;48.024;8.774;2023-08-20T00:10:32;94357.25;;;19.72;100.00
51829;BME280;37881;48.024;8.774;2023-08-20T00:12:59;94364.16;;;19.68;100.00
51829;BME280;37881;48.024;8.774;2023-08-20T00:15:26;94360.66;;;19.77;100.00
51829;BME280;37881;48.024;8.774;2023-08-20T00:17:54;94360.66;;;19.77;100.00
51829;BME280;37881;48.024;8.774;2023-08-20T00:20:22;94353.53;;;19.66;100.00
51829;BME280;37881;48.024;8.774;2023-08-20T00:22:49;94357.06;;;19.67;100.00
51829;BME280;37881;48.024;8.774;2023-08-20T00:25:17;94346.06;;;19.63;100.00
51829;BME280;37881;48.024;8.774;2023-08-20T00:27:44;94354.44;;;19.63;100.00
51829;BME280;37881;48.024;8.774;2023-08-20T00:30:11;94364.34;;;19.64;100.00
51829;BME280;37881;48.024;8.774;2023-08-20T00:32:38;94350.44;;;19.64;100.00
51829;BME280;37881;48.024;8.774;2023-08-20T00:35:05;94361.88;;;19.66;100.00
51829;BME280;37881;48.024;8.774;2023-08-20T00:37:34;94357.38;;;19.60;100.00
51829;BME280;37881;48.024;8.774;2023-08-20T00:40:02;94358.75;;;19.36;100.00
51829;BME280;37881;48.024;8.774;2023-08-20T00:42:32;94362.44;;;19.24;100.00
51829;BME280;37881;48.024;8.774;2023-08-20T00:44:59;94369.53;;;19.16;100.00
51829;BME280;37881;48.024;8.774;2023-08-20T00:47:27;94371.09;;;19.17;100.00
51829;BME280;37881;48.024;8.774;2023-08-20T00:49:54;94372.94;;;19.20;100.00
51829;BME280;37881;48.024;8.774;2023-08-20T00:52:21;94381.31;;;19.20;100.00
51829;BME280;37881;48.024;8.774;2023-08-20T00:54:49;94378.53;;;19.20;100.00
51829;BME280;37881;48.024;8.774;2023-08-20T00:57:19;94381.94;;;19.24;100.00
51829;BME280;37881;48.024;8.774;2023-08-20T00:59:48;94376.22;;;19.28;100.00
51829;BME280;37881;48.024;8.774;2023-08-20T01:02:19;94380.22;;;19.27;100.00
51829;BME280;37881;48.024;8.774;2023-08-20T01:04:47;94374.00;;;19.13;100.00
51829;BME280;37881;48.024;8.774;2023-08-20T01:07:30;94378.94;;;19.00;100.00
51829;BME280;37881;48.024;8.774;2023-08-20T01:10:09;94388.50;;;18.99;100.00
51829;BME280;37881;48.024;8.774;2023-08-20T01:12:38;94372.28;;;18.98;100.00
51829;BME280;37881;48.024;8.774;2023-08-20T01:15:06;94380.63;;;18.98;100.00
51829;BME280;37881;48.024;8.774;2023-08-20T01:17:32;94378.00;;;18.94;100.00
51829;BME280;37881;48.024;8.774;2023-08-20T01:20:00;94379.72;;;18.69;100.00
51829;BME280;37881;48.024;8.774;2023-08-20T01:30:32;94379.56;;;18.73;100.00
51829;BME280;37881;48.024;8.774;2023-08-20T01:33:00;94371.22;;;18.73;100.00
51829;BME280;37881;48.024;8.774;2023-08-20T01:35:28;94378.50;;;18.70;100.00
51829;BME280;37881;48.024;8.774;2023-08-20T01:37:54;94373.84;;;18.67;100.00
51829;BME280;37881;48.024;8.774;2023-08-20T01:40:21;94365.03;;;18.69;100.00
51829;BME280;37881;48.024;8.774;2023-08-20T01:42:48;94362.25;;;18.69;100.00
51829;BME280;37881;48.024;8.774;2023-08-20T01:45:15;94367.38;;;18.70;100.00
51829;BME280;37881;48.024;8.774;2023-08-20T01:47:41;94365.66;;;18.73;100.00
51829;BME280;37881;48.024;8.774;2023-08-20T01:50:10;94368.94;;;18.71;100.00
51829;BME280;37881;48.024;8.774;2023-08-20T01:52:36;94369.69;;;18.72;100.00
51829;BME280;37881;48.024;8.774;2023-08-20T01:55:04;94361.81;;;18.70;100.00
51829;BME280;37881;48.024;8.774;2023-08-20T01:57:30;94367.38;;;18.70;100.00
51829;BME280;37881;48.024;8.774;2023-08-20T01:59:59;94366.28;;;18.68;100.00
51829;BME280;37881;48.024;8.774;2023-08-20T02:02:25;94366.41;;;18.64;100.00
51829;BME280;37881;48.024;8.774;2023-08-20T02:04:52;94362.56;;;18.62;100.00
51829;BME280;37881;48.024;8.774;2023-08-20T02:07:19;94363.00;;;18.60;100.00
51829;BME280;37881;48.024;8.774;2023-08-20T02:09:46;94367.78;;;18.60;100.00
51829;BME280;37881;48.024;8.774;2023-08-20T02:12:12;94363.59;;;18.55;100.00
51829;BME280;37881;48.024;8.774;2023-08-20T02:14:39;94358.97;;;18.52;100.00
51829;BME280;37881;48.024;8.774;2023-08-20T02:17:07;94361.88;;;18.48;100.00
51829;BME280;37881;48.024;8.774;2023-08-20T02:19:35;94364.78;;;18.45;100.00
51829;BME280;37881;48.024;8.774;2023-08-20T02:22:01;94357.69;;;18.44;100.00
51829;BME280;37881;48.024;8.774;2023-08-20T02:24:29;94368.03;;;18.43;100.00
51829;BME280;37881;48.024;8.774;2023-08-20T02:26:56;94368.47;;;18.42;100.00
51829;BME280;37881;48.024;8.774;2023-08-20T02:29:23;94367.03;;;18.28;100.00
51829;BME280;37881;48.024;8.774;2023-08-20T02:31:49;94376.13;;;18.28;100.00
51829;BME280;37881;48.024;8.774;2023-08-20T02:34:16;94373.22;;;18.32;100.00
51829;BME280;37881;48.024;8.774;2023-08-20T02:36:43;94379.09;;;18.34;100.00
51829;BME280;37881;48.024;8.774;2023-08-20T02:39:09;94375.75;;;18.39;100.00
51829;BME280;37881;48.024;8.774;2023-08-20T02:41:36;94370.81;;;18.43;100.00
51829;BME280;37881;48.024;8.774;2023-08-20T02:44:03;94379.31;;;18.49;100.00
51829;BME280;37881;48.024;8.774;2023-08-20T02:46:30;94388.28;;;18.53;100.00
51829;BME280;37881;48.024;8.774;2023-08-20T02:48:57;94389.09;;;18.53;100.00
51829;BME280;37881;48.024;8.774;2023-08-20T02:51:24;94390.69;;;17.88;100.00
51829;BME280;37881;48.024;8.774;2023-08-20T02:53:50;94404.19;;;17.64;100.00
51829;BME280;37881;48.024;8.774;2023-08-20T02:56:17;94404.69;;;17.85;100.00
51829;BME280;37881;48.024;8.774;2023-08-20T02:58:44;94408.69;;;18.06;100.00
51829;BME280;37881;48.024;8.774;2023-08-20T03:01:22;94396.16;;;18.23;100.00
51829;BME280;37881;48.024;8.774;2023-08-20T03:03:49;94392.03;;;18.28;100.00
51829;BME280;37881;48.024;8.774;2023-08-20T03:06:16;94391.56;;;18.29;100.00
51829;BME280;37881;48.024;8.774;2023-08-20T03:08:43;94393.56;;;18.29;100.00
51829;BME280;37881;48.024;8.774;2023-08-20T03:11:10;94393.25;;;18.27;100.00
51829;BME280;37881;48.024;8.774;2023-08-20T03:13:37;94397.84;;;18.21;100.00
51829;BME280;37881;48.024;8.774;2023-08-20T03:16:03;94399.53;;;18.18;100.00
51829;BME280;37881;48.024;8.774;2023-08-20T03:18:30;94400.75;;;18.17;100.00
51829;BME280;37881;48.024;8.774;2023-08-20T03:20:57;94401.34;;;17.90;100.00
51829;BME280;37881;48.024;8.774;2023-08-20T03:23:24;94410.06;;;17.66;100.00
51829;BME280;37881;48.024;8.774;2023-08-20T03:25:50;94409.03;;;17.51;100.00
51829;BME280;37881;48.024;8.774;2023-08-20T03:28:18;94406.41;;;17.69;100.00
51829;BME280;37881;48.024;8.774;2023-08-20T03:30:45;94409.81;;;17.73;100.00
51829;BME280;37881;48.024;8.774;2023-08-20T03:33:12;94407.25;;;17.79;100.00
51829;BME280;37881;48.024;8.774;2023-08-20T03:35:39;94408.78;;;17.80;100.00
51829;BME280;37881;48.024;8.774;2023-08-20T03:38:06;94415.44;;;17.83;100.00
51829;BME280;37881;48.024;8.774;2023-08-20T03:40:32;94416.59;;;17.85;100.00
51829;BME280;37881;48.024;8.774;2023-08-20T03:42:59;94417.56;;;17.78;100.00
51829;BME280;37881;48.024;8.774;2023-08-20T03:45:26;94416.25;;;17.35;100.00
51829;BME280;37881;48.024;8.774;2023-08-20T03:47:53;94413.38;;;17.39;100.00
51829;BME280;37881;48.024;8.774;2023-08-20T03:50:19;94415.75;;;17.63;100.00
51829;BME280;37881;48.024;8.774;2023-08-20T03:52:46;94410.25;;;17.72;100.00
51829;BME280;37881;48.024;8.774;2023-08-20T03:55:13;94412.16;;;17.75;100.00
51829;BME280;37881;48.024;8.774;2023-08-20T03:57:39;94410.59;;;17.74;100.00
51829;BME280;37881;48.024;8.774;2023-08-20T04:00:06;94411.03;;;17.72;100.00
51829;BME280;37881;48.024;8.774;2023-08-20T04:02:36;94405.41;;;17.63;100.00
51829;BME280;37881;48.024;8.774;2023-08-20T04:05:03;94405.97;;;17.58;100.00
51829;BME280;37881;48.024;8.774;2023-08-20T04:07:30;94409.41;;;17.62;100.00
51829;BME280;37881;48.024;8.774;2023-08-20T04:09:57;94409.72;;;17.64;100.00
51829;BME280;37881;48.024;8.774;2023-08-20T04:12:24;94398.63;;;17.64;100.00
51829;BME280;37881;48.024;8.774;2023-08-20T04:14:51;94402.31;;;17.61;100.00
51829;BME280;37881;48.024;8.774;2023-08-20T04:17:17;94400.75;;;17.60;100.00
51829;BME280;37881;48.024;8.774;2023-08-20T04:19:44;94403.84;;;17.62;100.00
51829;BME280;37881;48.024;8.774;2023-08-20T04:22:11;94390.44;;;17.61;100.00
51829;BME280;37881;48.024;8.774;2023-08-20T04:24:38;94390.56;;;17.57;100.00
51829;BME280;37881;48.024;8.774;2023-08-20T04:27:05;94399.25;;;17.46;100.00
51829;BME280;37881;48.024;8.774;2023-08-20T04:29:32;94392.16;;;17.45;100.00
51829;BME280;37881;48.024;8.774;2023-08-20T04:31:59;94389.81;;;17.44;100.00
51829;BME280;37881;48.024;8.774;2023-08-20T04:34:26;94388.34;;;17.52;100.00
51829;BME280;37881;48.024;8.774;2023-08-20T04:36:52;94390.91;;;17.59;100.00
51829;BME280;37881;48.024;8.774;2023-08-20T04:39:19;94400.84;;;17.69;100.00
51829;BME280;37881;48.024;8.774;2023-08-20T04:41:46;94403.81;;;17.75;100.00
51829;BME280;37881;48.024;8.774;2023-08-20T04:44:13;94405.78;;;17.52;100.00
51829;BME280;37881;48.024;8.774;2023-08-20T04:46:39;94406.25;;;17.51;100.00
51829;BME280;37881;48.024;8.774;2023-08-20T04:49:06;94411.13;;;17.47;100.00
51829;BME280;37881;48.024;8.774;2023-08-20T04:51:33;94421.75;;;17.48;100.00
51829;BME280;37881;48.024;8.774;2023-08-20T04:53:59;94418.97;;;17.61;100.00
51829;BME280;37881;48.024;8.774;2023-08-20T04:56:26;94421.69;;;17.74;100.00
51829;BME280;37881;48.024;8.774;2023-08-20T04:58:53;94425.69;;;17.86;100.00
51829;BME280;37881;48.024;8.774;2023-08-20T05:01:19;94418.53;;;17.98;100.00
51829;BME280;37881;48.024;8.774;2023-08-20T05:03:46;94423.25;;;18.10;100.00
51829;BME280;37881;48.024;8.774;2023-08-20T05:06:13;94423.00;;;18.17;100.00
51829;BME280;37881;48.024;8.774;2023-08-20T05:08:40;94429.50;;;18.23;100.00
51829;BME280;37881;48.024;8.774;2023-08-20T05:11:07;94420.38;;;18.23;100.00
51829;BME280;37881;48.024;8.774;2023-08-20T05:13:33;94422.13;;;18.29;100.00
51829;BME280;37881;48.024;8.774;2023-08-20T05:16:00;94415.75;;;18.20;100.00
51829;BME280;37881;48.024;8.774;2023-08-20T05:18:27;94425.56;;;17.89;100.00
51829;BME280;37881;48.024;8.774;2023-08-20T05:20:54;94419.50;;;17.69;100.00
51829;BME280;37881;48.024;8.774;2023-08-20T05:23:20;94415.22;;;17.90;100.00
51829;BME280;37881;48.024;8.774;2023-08-20T05:25:47;94408.78;;;17.93;100.00
51829;BME280;37881;48.024;8.774;2023-08-20T05:28:14;94405.19;;;18.14;100.00
51829;BME280;37881;48.024;8.774;2023-08-20T05:30:40;94408.25;;;18.29;100.00
51829;BME280;37881;48.024;8.774;2023-08-20T05:33:07;94410.34;;;18.47;100.00
51829;BME280;37881;48.024;8.774;2023-08-20T05:35:34;94415.91;;;18.47;100.00
51829;BME280;37881;48.024;8.774;2023-08-20T05:38:02;94418.78;;;18.66;100.00
51829;BME280;37881;48.024;8.774;2023-08-20T05:40:29;94418.69;;;18.79;100.00
51829;BME280;37881;48.024;8.774;2023-08-20T05:42:55;94415.91;;;19.10;100.00
51829;BME280;37881;48.024;8.774;2023-08-20T05:45:22;94417.78;;;19.22;100.00
51829;BME280;37881;48.024;8.774;2023-08-20T05:47:49;94408.09;;;19.64;100.00
51829;BME280;37881;48.024;8.774;2023-08-20T05:50:16;94401.31;;;20.29;100.00
51829;BME280;37881;48.024;8.774;2023-08-20T05:52:42;94406.25;;;20.34;100.00
51829;BME280;37881;48.024;8.774;2023-08-20T05:55:09;94402.13;;;20.02;100.00
51829;BME280;37881;48.024;8.774;2023-08-20T05:57:36;94403.97;;;20.05;100.00
51829;BME280;37881;48.024;8.774;2023-08-20T06:00:04;94407.91;;;20.60;100.00
51829;BME280;37881;48.024;8.774;2023-08-20T06:02:31;94410.28;;;20.94;100.00
51829;BME280;37881;48.024;8.774;2023-08-20T06:04:58;94405.03;;;21.21;100.00
51829;BME280;37881;48.024;8.774;2023-08-20T06:07:24;94411.47;;;21.36;100.00
51829;BME280;37881;48.024;8.774;2023-08-20T06:09:51;94402.00;;;21.43;100.00
51829;BME280;37881;48.024;8.774;2023-08-20T06:12:18;94405.41;;;21.38;100.00
51829;BME280;37881;48.024;8.774;2023-08-20T06:14:45;94409.41;;;21.94;100.00
51829;BME280;37881;48.024;8.774;2023-08-20T06:17:11;94404.91;;;22.11;100.00
51829;BME280;37881;48.024;8.774;2023-08-20T06:19:38;94410.75;;;22.38;100.00
51829;BME280;37881;48.024;8.774;2023-08-20T06:22:05;94408.53;;;22.57;100.00
51829;BME280;37881;48.024;8.774;2023-08-20T06:24:31;94406.88;;;23.65;100.00
51829;BME280;37881;48.024;8.774;2023-08-20T06:26:58;94405.66;;;23.66;100.00
51829;BME280;37881;48.024;8.774;2023-08-20T06:29:25;94398.63;;;24.44;100.00
51829;BME280;37881;48.024;8.774;2023-08-20T06:31:52;94408.31;;;24.17;100.00
51829;BME280;37881;48.024;8.774;2023-08-20T06:34:18;94404.31;;;24.76;100.00
51829;BME280;37881;48.024;8.774;2023-08-20T06:36:45;94404.66;;;25.58;100.00
51829;BME280;37881;48.024;8.774;2023-08-20T06:39:13;94406.41;;;25.99;100.00
51829;BME280;37881;48.024;8.774;2023-08-20T06:41:41;94416.78;;;26.47;100.00
51829;BME280;37881;48.024;8.774;2023-08-20T06:44:08;94411.19;;;28.88;96.60
51829;BME280;37881;48.024;8.774;2023-08-20T06:46:35;94411.03;;;28.22;96.15
51829;BME280;37881;48.024;8.774;2023-08-20T06:49:02;94415.84;;;27.18;100.00
51829;BME280;37881;48.024;8.774;2023-08-20T06:51:29;94427.38;;;26.80;100.00
51829;BME280;37881;48.024;8.774;2023-08-20T06:53:56;94416.78;;;29.84;87.18
51829;BME280;37881;48.024;8.774;2023-08-20T06:56:23;94420.16;;;30.02;86.94
51829;BME280;37881;48.024;8.774;2023-08-20T06:58:50;94425.09;;;29.77;84.89
51829;BME280;37881;48.024;8.774;2023-08-20T07:01:17;94422.69;;;30.05;86.10
51829;BME280;37881;48.024;8.774;2023-08-20T07:03:44;94429.81;;;30.56;80.35
51829;BME280;37881;48.024;8.774;2023-08-20T07:06:11;94429.72;;;30.80;77.12
51829;BME280;37881;48.024;8.774;2023-08-20T07:08:38;94421.13;;;31.83;75.29
51829;BME280;37881;48.024;8.774;2023-08-20T07:11:07;94424.97;;;32.87;68.41
51829;BME280;37881;48.024;8.774;2023-08-20T07:13:34;94434.94;;;32.80;68.20
51829;BME280;37881;48.024;8.774;2023-08-20T07:16:01;94441.25;;;31.53;71.53
51829;BME280;37881;48.024;8.774;2023-08-20T07:18:28;94441.13;;;31.13;79.08
51829;BME280;37881;48.024;8.774;2023-08-20T07:20:55;94440.28;;;29.07;88.57
51829;BME280;37881;48.024;8.774;2023-08-20T07:23:23;94439.25;;;28.22;95.22
51829;BME280;37881;48.024;8.774;2023-08-20T07:25:49;94423.75;;;32.21;75.89
51829;BME280;37881;48.024;8.774;2023-08-20T07:28:19;94435.34;;;34.39;63.85
51829;BME280;37881;48.024;8.774;2023-08-20T07:31:08;94430.63;;;35.91;54.88
51829;BME280;37881;48.024;8.774;2023-08-20T07:33:35;94430.44;;;35.97;55.99
51829;BME280;37881;48.024;8.774;2023-08-20T07:36:01;94428.19;;;37.15;51.08
51829;BME280;37881;48.024;8.774;2023-08-20T07:38:28;94440.50;;;31.20;75.34
51829;BME280;37881;48.024;8.774;2023-08-20T07:40:55;94430.28;;;34.53;63.11
51829;BME280;37881;48.024;8.774;2023-08-20T07:43:22;94438.34;;;31.58;72.65
51829;BME280;37881;48.024;8.774;2023-08-20T07:45:48;94429.34;;;34.50;60.99
51829;BME280;37881;48.024;8.774;2023-08-20T07:48:15;94424.56;;;36.66;51.87
51829;BME280;37881;48.024;8.774;2023-08-20T07:50:42;94435.38;;;35.66;50.76
51829;BME280;37881;48.024;8.774;2023-08-20T07:53:08;94427.22;;;38.38;45.36
51829;BME280;37881;48.024;8.774;2023-08-20T07:55:35;94423.72;;;40.20;40.83
51829;BME280;37881;48.024;8.774;2023-08-20T07:58:03;94431.03;;;40.31;39.99
51829;BME280;37881;48.024;8.774;2023-08-20T08:00:30;94429.69;;;40.51;38.09
51829;BME280;37881;48.024;8.774;2023-08-20T08:02:57;94423.25;;;36.67;46.59
51829;BME280;37881;48.024;8.774;2023-08-20T08:05:23;94431.69;;;39.38;41.25
51829;BME280;37881;48.024;8.774;2023-08-20T08:07:50;94429.91;;;37.43;44.14
51829;BME280;37881;48.024;8.774;2023-08-20T08:10:17;94431.78;;;37.98;42.76
51829;BME280;37881;48.024;8.774;2023-08-20T08:12:44;94439.19;;;35.60;49.63
51829;BME280;37881;48.024;8.774;2023-08-20T08:15:10;94432.63;;;35.06;51.04
51829;BME280;37881;48.024;8.774;2023-08-20T08:17:37;94433.03;;;36.41;48.92
51829;BME280;37881;48.024;8.774;2023-08-20T08:20:05;94434.88;;;36.69;48.59
51829;BME280;37881;48.024;8.774;2023-08-20T08:22:32;94435.78;;;39.08;42.21
51829;BME280;37881;48.024;8.774;2023-08-20T08:24:59;94437.06;;;38.27;42.43
51829;BME280;37881;48.024;8.774;2023-08-20T08:27:27;94431.47;;;37.69;44.13
51829;BME280;37881;48.024;8.774;2023-08-20T08:29:53;94433.63;;;37.28;42.81
51829;BME280;37881;48.024;8.774;2023-08-20T08:32:20;94442.91;;;36.63;46.11
51829;BME280;37881;48.024;8.774;2023-08-20T08:34:47;94437.66;;;37.83;44.04
51829;BME280;37881;48.024;8.774;2023-08-20T08:37:13;94441.13;;;37.99;42.86
51829;BME280;37881;48.024;8.774;2023-08-20T08:39:42;94444.91;;;37.59;42.79
51829;BME280;37881;48.024;8.774;2023-08-20T08:42:10;94448.44;;;36.53;43.46
51829;BME280;37881;48.024;8.774;2023-08-20T08:44:38;94448.06;;;33.80;56.92
51829;BME280;37881;48.024;8.774;2023-08-20T08:47:05;94454.59;;;33.89;57.14
51829;BME280;37881;48.024;8.774;2023-08-20T08:49:34;94453.13;;;32.63;65.87
51829;BME280;37881;48.024;8.774;2023-08-20T08:52:03;94457.44;;;31.58;73.35
51829;BME280;37881;48.024;8.774;2023-08-20T08:54:32;94445.81;;;33.02;61.52
51829;BME280;37881;48.024;8.774;2023-08-20T08:57:00;94452.72;;;34.93;54.72
51829;BME280;37881;48.024;8.774;2023-08-20T08:59:26;94457.06;;;33.63;58.98
51829;BME280;37881;48.024;8.774;2023-08-20T09:01:54;94444.53;;;37.22;48.17
51829;BME280;37881;48.024;8.774;2023-08-20T09:04:20;94451.50;;;37.36;44.87
51829;BME280;37881;48.024;8.774;2023-08-20T09:06:52;94443.09;;;33.31;53.67
51829;BME280;37881;48.024;8.774;2023-08-20T09:09:20;94450.06;;;31.95;66.24
51829;BME280;37881;48.024;8.774;2023-08-20T09:11:47;94449.94;;;33.78;62.12
51829;BME280;37881;48.024;8.774;2023-08-20T09:14:27;94443.44;;;35.00;53.15
51829;BME280;37881;48.024;8.774;2023-08-20T09:16:58;94448.78;;;34.02;57.48
51829;BME280;37881;48.024;8.774;2023-08-20T09:19:28;94447.00;;;35.68;51.08
51829;BME280;37881;48.024;8.774;2023-08-20T09:21:59;94451.63;;;36.73;47.42
51829;BME280;37881;48.024;8.774;2023-08-20T09:24:32;94463.53;;;36.08;47.59
51829;BME280;37881;48.024;8.774;2023-08-20T09:27:03;94453.75;;;33.59;53.43
51829;BME280;37881;48.024;8.774;2023-08-20T09:29:32;94455.97;;;31.19;68.60
51829;BME280;37881;48.024;8.774;2023-08-20T09:32:01;94455.66;;;31.22;71.81
51829;BME280;37881;48.024;8.774;2023-08-20T09:34:37;94447.03;;;34.20;57.66
51829;BME280;37881;48.024;8.774;2023-08-20T09:37:24;94449.66;;;32.17;64.40
51829;BME280;37881;48.024;8.774;2023-08-20T09:39:51;94453.22;;;31.78;69.29
51829;BME280;37881;48.024;8.774;2023-08-20T09:42:18;94449.53;;;32.97;64.55
51829;BME280;37881;48.024;8.774;2023-08-20T09:44:46;94445.94;;;32.22;64.50
51829;BME280;37881;48.024;8.774;2023-08-20T09:47:18;94442.75;;;32.66;62.92
51829;BME280;37881;48.024;8.774;2023-08-20T09:49:47;94443.91;;;34.10;55.60
51829;BME280;37881;48.024;8.774;2023-08-20T09:52:23;94442.88;;;32.95;62.48
51829;BME280;37881;48.024;8.774;2023-08-20T09:57:39;94432.84;;;37.86;45.34
51829;BME280;37881;48.024;8.774;2023-08-20T10:00:11;94436.22;;;38.69;41.08
51829;BME280;37881;48.024;8.774;2023-08-20T10:02:40;94437.78;;;38.53;42.25
51829;BME280;37881;48.024;8.774;2023-08-20T10:05:08;94443.66;;;38.38;40.11
51829;BME280;37881;48.024;8.774;2023-08-20T10:07:36;94436.56;;;37.96;42.61
51829;BME280;37881;48.024;8.774;2023-08-20T10:10:08;94440.66;;;38.10;41.84
51829;BME280;37881;48.024;8.774;2023-08-20T10:12:36;94437.38;;;39.19;37.61
51829;BME280;37881;48.024;8.774;2023-08-20T10:15:03;94439.50;;;34.01;51.09
51829;BME280;37881;48.024;8.774;2023-08-20T10:17:32;94439.09;;;38.34;41.14
51829;BME280;37881;48.024;8.774;2023-08-20T10:20:02;94435.34;;;39.66;35.28
51829;BME280;37881;48.024;8.774;2023-08-20T10:22:40;94442.09;;;41.03;34.15
51829;BME280;37881;48.024;8.774;2023-08-20T10:25:12;94438.94;;;38.67;36.36
51829;BME280;37881;48.024;8.774;2023-08-20T10:27:48;94436.13;;;37.24;39.88
51829;BME280;37881;48.024;8.774;2023-08-20T10:30:19;94437.50;;;40.22;33.08
51829;BME280;37881;48.024;8.774;2023-08-20T10:32:52;94433.63;;;37.28;36.82
51829;BME280;37881;48.024;8.774;2023-08-20T10:35:46;94435.53;;;36.93;37.87
51829;BME280;37881;48.024;8.774;2023-08-20T10:38:14;94438.84;;;36.74;38.04
51829;BME280;37881;48.024;8.774;2023-08-20T10:40:58;94439.25;;;37.44;38.84
51829;BME280;37881;48.024;8.774;2023-08-20T10:48:51;94428.13;;;38.23;35.01
51829;BME280;37881;48.024;8.774;2023-08-20T10:56:45;94425.53;;;39.69;31.25
51829;BME280;37881;48.024;8.774;2023-08-20T10:59:17;94432.91;;;41.45;29.86
51829;BME280;37881;48.024;8.774;2023-08-20T11:01:45;94418.25;;;43.12;27.73
51829;BME280;37881;48.024;8.774;2023-08-20T11:04:14;94427.41;;;40.40;31.14
51829;BME280;37881;48.024;8.774;2023-08-20T11:06:42;94422.75;;;37.60;35.81
51829;BME280;37881;48.024;8.774;2023-08-20T11:09:10;94422.72;;;39.88;32.61
51829;BME280;37881;48.024;8.774;2023-08-20T11:11:38;94424.34;;;35.85;39.14
51829;BME280;37881;48.024;8.774;2023-08-20T11:14:09;94418.78;;;38.40;35.25
51829;BME280;37881;48.024;8.774;2023-08-20T11:16:38;94418.44;;;37.18;35.97
51829;BME280;37881;48.024;8.774;2023-08-20T11:19:05;94422.13;;;36.55;36.45
51829;BME280;37881;48.024;8.774;2023-08-20T11:21:35;94416.66;;;36.34;36.66
51829;BME280;37881;48.024;8.774;2023-08-20T11:24:04;94409.91;;;37.03;35.03
51829;BME280;37881;48.024;8.774;2023-08-20T11:26:31;94406.41;;;36.79;34.62
51829;BME280;37881;48.024;8.774;2023-08-20T11:28:57;94410.66;;;36.63;34.94
51829;BME280;37881;48.024;8.774;2023-08-20T11:31:25;94400.31;;;36.83;36.12
51829;BME280;37881;48.024;8.774;2023-08-20T11:33:52;94407.06;;;37.35;35.71
51829;BME280;37881;48.024;8.774;2023-08-20T11:36:20;94397.13;;;37.11;34.75
51829;BME280;37881;48.024;8.774;2023-08-20T11:38:53;94387.34;;;37.14;35.45
51829;BME280;37881;48.024;8.774;2023-08-20T11:41:24;94391.66;;;36.90;34.92
51829;BME280;37881;48.024;8.774;2023-08-20T11:43:52;94387.22;;;37.05;34.92
51829;BME280;37881;48.024;8.774;2023-08-20T11:46:21;94382.06;;;34.62;37.60
51829;BME280;37881;48.024;8.774;2023-08-20T11:51:35;94389.66;;;33.37;42.27
51829;BME280;37881;48.024;8.774;2023-08-20T11:54:01;94383.44;;;33.89;41.39
51829;BME280;37881;48.024;8.774;2023-08-20T11:56:29;94385.75;;;34.71;40.79
51829;BME280;37881;48.024;8.774;2023-08-20T11:58:59;94384.59;;;35.72;38.40
51829;BME280;37881;48.024;8.774;2023-08-20T12:01:31;94372.38;;;35.87;37.48
51829;BME280;37881;48.024;8.774;2023-08-20T12:04:00;94378.59;;;33.76;41.43
51829;BME280;37881;48.024;8.774;2023-08-20T12:06:28;94372.13;;;34.92;39.73
51829;BME280;37881;48.024;8.774;2023-08-20T12:08:58;94369.81;;;34.39;40.08
51829;BME280;37881;48.024;8.774;2023-08-20T12:11:25;94374.63;;;34.52;38.78
51829;BME280;37881;48.024;8.774;2023-08-20T12:13:53;94371.16;;;35.05;38.27
51829;BME280;37881;48.024;8.774;2023-08-20T12:16:24;94368.97;;;35.80;37.19
51829;BME280;37881;48.024;8.774;2023-08-20T12:18:51;94369.75;;;33.37;41.91
51829;BME280;37881;48.024;8.774;2023-08-20T12:21:21;94369.91;;;32.76;43.30
51829;BME280;37881;48.024;8.774;2023-08-20T12:23:47;94367.16;;;33.26;42.09
51829;BME280;37881;48.024;8.774;2023-08-20T12:26:14;94360.41;;;33.58;41.08
51829;BME280;37881;48.024;8.774;2023-08-20T12:28:41;94361.16;;;33.58;40.78
51829;BME280;37881;48.024;8.774;2023-08-20T12:31:08;94362.94;;;33.19;41.19
51829;BME280;37881;48.024;8.774;2023-08-20T12:33:35;94364.78;;;33.59;41.93
51829;BME280;37881;48.024;8.774;2023-08-20T12:36:02;94361.59;;;33.91;40.07
51829;BME280;37881;48.024;8.774;2023-08-20T12:38:28;94362.09;;;34.47;39.56
51829;BME280;37881;48.024;8.774;2023-08-20T12:41:01;94361.44;;;34.77;39.87
51829;BME280;37881;48.024;8.774;2023-08-20T12:43:30;94357.44;;;34.73;40.51
51829;BME280;37881;48.024;8.774;2023-08-20T12:45:57;94345.84;;;34.27;40.21
51829;BME280;37881;48.024;8.774;2023-08-20T12:48:23;94344.66;;;34.14;40.39
51829;BME280;37881;48.024;8.774;2023-08-20T12:50:50;94351.53;;;34.27;40.69
51829;BME280;37881;48.024;8.774;2023-08-20T12:53:17;94353.00;;;34.64;39.11
51829;BME280;37881;48.024;8.774;2023-08-20T12:55:44;94346.59;;;34.19;40.61
51829;BME280;37881;48.024;8.774;2023-08-20T12:58:11;94342.00;;;32.88;42.60
51829;BME280;37881;48.024;8.774;2023-08-20T13:00:38;94353.41;;;33.59;42.09
51829;BME280;37881;48.024;8.774;2023-08-20T13:03:05;94343.88;;;33.56;42.49
51829;BME280;37881;48.024;8.774;2023-08-20T13:05:33;94345.22;;;33.34;45.01
51829;BME280;37881;48.024;8.774;2023-08-20T13:08:00;94347.25;;;33.26;44.67
51829;BME280;37881;48.024;8.774;2023-08-20T13:10:27;94352.59;;;33.30;44.45
51829;BME280;37881;48.024;8.774;2023-08-20T13:13:00;94354.28;;;33.25;46.09
51829;BME280;37881;48.024;8.774;2023-08-20T13:15:27;94351.91;;;32.95;47.87
51829;BME280;37881;48.024;8.774;2023-08-20T13:17:54;94342.41;;;33.13;47.93
51829;BME280;37881;48.024;8.774;2023-08-20T13:20:22;94339.06;;;33.01;48.83
51829;BME280;37881;48.024;8.774;2023-08-20T13:22:51;94341.00;;;33.49;46.17